sensor_id;sensor_type;location;lat;lon;timestamp;temperature;humidity
20568;DHT22;10442;49.932;11.592;2023-08-06T00:00:29;19.70;72.70
20568;DHT22;10442;49.932;11.592;2023-08-06T00:03:32;19.80;73.10
20568;DHT22;10442;49.932;11.592;2023-08-06T00:06:01;19.80;72.90
20568;DHT22;10442;49.932;11.592;2023-08-06T00:08:31;19.70;73.20
20568;DHT22;10442;49.932;11.592;2023-08-06T00:10:59;19.70;73.60
20568;DHT22;10442;49.932;11.592;2023-08-06T00:13:26;19.70;73.80
20568;DHT22;10442;49.932;11.592;2023-08-06T00:16:11;19.60;74.00
20568;DHT22;10442;49.932;11.592;2023-08-06T00:18:46;19.60;74.90
20568;DHT22;10442;49.932;11.592;2023-08-06T00:21:15;19.60;75.10
20568;DHT22;10442;49.932;11.592;2023-08-06T00:24:18;19.50;75.00
20568;DHT22;10442;49.932;11.592;2023-08-06T00:26:46;19.50;75.50
20568;DHT22;10442;49.932;11.592;2023-08-06T00:33:01;19.50;75.40
20568;DHT22;10442;49.932;11.592;2023-08-06T00:35:30;19.50;74.70
20568;DHT22;10442;49.932;11.592;2023-08-06T00:37:59;19.50;75.00
20568;DHT22;10442;49.932;11.592;2023-08-06T00:40:55;19.50;75.20
20568;DHT22;10442;49.932;11.592;2023-08-06T00:43:27;19.50;75.30
20568;DHT22;10442;49.932;11.592;2023-08-06T00:45:56;19.50;75.40
20568;DHT22;10442;49.932;11.592;2023-08-06T00:48:27;19.40;75.30
20568;DHT22;10442;49.932;11.592;2023-08-06T00:50:56;19.40;75.30
20568;DHT22;10442;49.932;11.592;2023-08-06T00:53:23;19.40;75.50
20568;DHT22;10442;49.932;11.592;2023-08-06T00:55:52;19.40;75.60
20568;DHT22;10442;49.932;11.592;2023-08-06T00:58:19;19.40;75.50
20568;DHT22;10442;49.932;11.592;2023-08-06T01:00:47;19.30;75.50
20568;DHT22;10442;49.932;11.592;2023-08-06T01:03:15;19.30;75.50
20568;DHT22;10442;49.932;11.592;2023-08-06T01:06:42;19.30;75.80
20568;DHT22;10442;49.932;11.592;2023-08-06T01:09:21;19.30;76.20
20568;DHT22;10442;49.932;11.592;2023-08-06T01:12:18;19.20;75.50
20568;DHT22;10442;49.932;11.592;2023-08-06T01:14:58;19.20;75.80
20568;DHT22;10442;49.932;11.592;2023-08-06T01:17:34;19.10;75.60
20568;DHT22;10442;49.932;11.592;2023-08-06T01:20:04;19.10;75.80
20568;DHT22;10442;49.932;11.592;2023-08-06T01:22:33;19.10;75.90
20568;DHT22;10442;49.932;11.592;2023-08-06T01:25:33;19.00;76.20
20568;DHT22;10442;49.932;11.592;2023-08-06T01:28:11;18.90;76.60
20568;DHT22;10442;49.932;11.592;2023-08-06T01:30:51;18.90;76.60
20568;DHT22;10442;49.932;11.592;2023-08-06T01:34:21;18.90;76.80
20568;DHT22;10442;49.932;11.592;2023-08-06T01:36:56;18.90;77.40
20568;DHT22;10442;49.932;11.592;2023-08-06T01:39:27;18.90;77.00
20568;DHT22;10442;49.932;11.592;2023-08-06T01:41:55;18.90;77.30
20568;DHT22;10442;49.932;11.592;2023-08-06T01:48:34;18.90;77.80
20568;DHT22;10442;49.932;11.592;2023-08-06T01:51:06;19.00;77.40
20568;DHT22;10442;49.932;11.592;2023-08-06T01:53:59;19.00;77.20
20568;DHT22;10442;49.932;11.592;2023-08-06T01:56:32;19.00;77.50
20568;DHT22;10442;49.932;11.592;2023-08-06T01:59:00;19.00;77.40
20568;DHT22;10442;49.932;11.592;2023-08-06T02:01:31;19.00;77.50
20568;DHT22;10442;49.932;11.592;2023-08-06T02:03:59;19.00;77.40
20568;DHT22;10442;49.932;11.592;2023-08-06T02:06:29;19.00;77.20
20568;DHT22;10442;49.932;11.592;2023-08-06T02:08:59;19.00;77.50
20568;DHT22;10442;49.932;11.592;2023-08-06T02:12:21;19.00;77.50
20568;DHT22;10442;49.932;11.592;2023-08-06T02:14:51;19.00;77.60
20568;DHT22;10442;49.932;11.592;2023-08-06T02:17:25;19.00;77.70
20568;DHT22;10442;49.932;11.592;2023-08-06T02:20:19;19.00;77.40
20568;DHT22;10442;49.932;11.592;2023-08-06T02:22:49;19.00;77.40
20568;DHT22;10442;49.932;11.592;2023-08-06T02:25:21;19.00;77.10
20568;DHT22;10442;49.932;11.592;2023-08-06T02:27:49;19.00;77.10
20568;DHT22;10442;49.932;11.592;2023-08-06T02:30:50;18.90;77.10
20568;DHT22;10442;49.932;11.592;2023-08-06T02:33:19;18.90;77.40
20568;DHT22;10442;49.932;11.592;2023-08-06T02:36:14;18.90;77.00
20568;DHT22;10442;49.932;11.592;2023-08-06T02:39:08;18.90;77.20
20568;DHT22;10442;49.932;11.592;2023-08-06T02:41:36;18.80;77.20
20568;DHT22;10442;49.932;11.592;2023-08-06T02:44:03;18.80;76.90
20568;DHT22;10442;49.932;11.592;2023-08-06T02:46:32;18.80;76.90
20568;DHT22;10442;49.932;11.592;2023-08-06T02:48:59;18.70;76.80
20568;DHT22;10442;49.932;11.592;2023-08-06T02:51:52;18.70;76.80
20568;DHT22;10442;49.932;11.592;2023-08-06T02:54:22;18.60;77.20
20568;DHT22;10442;49.932;11.592;2023-08-06T02:56:50;18.60;77.20
20568;DHT22;10442;49.932;11.592;2023-08-06T02:59:44;18.50;77.20
20568;DHT22;10442;49.932;11.592;2023-08-06T03:02:20;18.50;77.40
20568;DHT22;10442;49.932;11.592;2023-08-06T03:04:56;18.50;77.40
20568;DHT22;10442;49.932;11.592;2023-08-06T03:07:31;18.40;77.40
20568;DHT22;10442;49.932;11.592;2023-08-06T03:10:09;18.40;77.50
20568;DHT22;10442;49.932;11.592;2023-08-06T03:12:39;18.40;77.50
20568;DHT22;10442;49.932;11.592;2023-08-06T03:15:07;18.40;77.60
20568;DHT22;10442;49.932;11.592;2023-08-06T03:17:35;18.40;77.60
20568;DHT22;10442;49.932;11.592;2023-08-06T03:20:08;18.40;77.60
20568;DHT22;10442;49.932;11.592;2023-08-06T03:22:45;18.30;77.60
20568;DHT22;10442;49.932;11.592;2023-08-06T03:25:17;18.40;77.50
20568;DHT22;10442;49.932;11.592;2023-08-06T03:27:50;18.40;77.50
20568;DHT22;10442;49.932;11.592;2023-08-06T03:30:21;18.40;77.40
20568;DHT22;10442;49.932;11.592;2023-08-06T03:32:52;18.40;77.30
20568;DHT22;10442;49.932;11.592;2023-08-06T03:35:22;18.30;77.10
20568;DHT22;10442;49.932;11.592;2023-08-06T03:37:49;18.30;77.10
20568;DHT22;10442;49.932;11.592;2023-08-06T03:40:18;18.30;77.30
20568;DHT22;10442;49.932;11.592;2023-08-06T03:42:47;18.30;77.40
20568;DHT22;10442;49.932;11.592;2023-08-06T03:45:40;18.30;77.50
20568;DHT22;10442;49.932;11.592;2023-08-06T03:48:08;18.30;77.60
20568;DHT22;10442;49.932;11.592;2023-08-06T03:50:41;18.30;77.30
20568;DHT22;10442;49.932;11.592;2023-08-06T03:53:13;18.30;77.40
20568;DHT22;10442;49.932;11.592;2023-08-06T03:55:41;18.30;77.20
20568;DHT22;10442;49.932;11.592;2023-08-06T03:58:10;18.30;77.20
20568;DHT22;10442;49.932;11.592;2023-08-06T04:00:38;18.30;77.10
20568;DHT22;10442;49.932;11.592;2023-08-06T04:03:06;18.30;77.00
20568;DHT22;10442;49.932;11.592;2023-08-06T04:08:52;18.30;77.30
20568;DHT22;10442;49.932;11.592;2023-08-06T04:11:20;18.20;76.90
20568;DHT22;10442;49.932;11.592;2023-08-06T04:13:47;18.20;76.80
20568;DHT22;10442;49.932;11.592;2023-08-06T04:16:22;18.20;76.60
20568;DHT22;10442;49.932;11.592;2023-08-06T04:18:50;18.20;76.80
20568;DHT22;10442;49.932;11.592;2023-08-06T04:25:57;18.10;76.90
20568;DHT22;10442;49.932;11.592;2023-08-06T04:28:35;18.10;77.20
20568;DHT22;10442;49.932;11.592;2023-08-06T04:31:02;18.10;76.90
20568;DHT22;10442;49.932;11.592;2023-08-06T04:33:32;18.10;77.20
20568;DHT22;10442;49.932;11.592;2023-08-06T04:36:33;18.10;77.40
20568;DHT22;10442;49.932;11.592;2023-08-06T04:39:02;18.10;78.00
20568;DHT22;10442;49.932;11.592;2023-08-06T04:41:30;18.10;77.60
20568;DHT22;10442;49.932;11.592;2023-08-06T04:43:58;18.10;77.80
20568;DHT22;10442;49.932;11.592;2023-08-06T04:46:28;18.10;77.80
20568;DHT22;10442;49.932;11.592;2023-08-06T04:48:55;18.10;77.70
20568;DHT22;10442;49.932;11.592;2023-08-06T04:51:48;18.10;77.70
20568;DHT22;10442;49.932;11.592;2023-08-06T05:07:29;18.20;78.00
20568;DHT22;10442;49.932;11.592;2023-08-06T05:09:57;18.20;77.80
20568;DHT22;10442;49.932;11.592;2023-08-06T05:12:26;18.20;77.80
20568;DHT22;10442;49.932;11.592;2023-08-06T05:14:53;18.20;78.10
20568;DHT22;10442;49.932;11.592;2023-08-06T05:17:21;18.20;77.80
20568;DHT22;10442;49.932;11.592;2023-08-06T05:19:50;18.30;77.80
20568;DHT22;10442;49.932;11.592;2023-08-06T05:26:11;18.30;77.90
20568;DHT22;10442;49.932;11.592;2023-08-06T05:28:44;18.40;77.70
20568;DHT22;10442;49.932;11.592;2023-08-06T05:31:12;18.40;77.20
20568;DHT22;10442;49.932;11.592;2023-08-06T05:33:40;18.40;77.30
20568;DHT22;10442;49.932;11.592;2023-08-06T05:36:08;18.40;77.40
20568;DHT22;10442;49.932;11.592;2023-08-06T05:38:37;18.40;77.70
20568;DHT22;10442;49.932;11.592;2023-08-06T05:41:04;18.40;77.70
20568;DHT22;10442;49.932;11.592;2023-08-06T05:43:32;18.50;77.60
20568;DHT22;10442;49.932;11.592;2023-08-06T05:45:59;18.50;77.70
20568;DHT22;10442;49.932;11.592;2023-08-06T05:48:27;18.50;77.50
20568;DHT22;10442;49.932;11.592;2023-08-06T05:50:59;18.50;77.60
20568;DHT22;10442;49.932;11.592;2023-08-06T05:53:27;18.50;77.70
20568;DHT22;10442;49.932;11.592;2023-08-06T05:55:54;18.50;77.40
20568;DHT22;10442;49.932;11.592;2023-08-06T05:58:21;18.50;77.40
20568;DHT22;10442;49.932;11.592;2023-08-06T06:00:49;18.60;77.60
20568;DHT22;10442;49.932;11.592;2023-08-06T06:03:17;18.60;77.70
20568;DHT22;10442;49.932;11.592;2023-08-06T06:06:10;18.60;77.60
20568;DHT22;10442;49.932;11.592;2023-08-06T06:08:42;18.70;77.90
20568;DHT22;10442;49.932;11.592;2023-08-06T06:11:09;18.70;77.50
20568;DHT22;10442;49.932;11.592;2023-08-06T06:13:36;18.70;77.30
20568;DHT22;10442;49.932;11.592;2023-08-06T06:16:04;18.80;76.90
20568;DHT22;10442;49.932;11.592;2023-08-06T06:18:32;18.80;76.80
20568;DHT22;10442;49.932;11.592;2023-08-06T06:21:02;18.80;76.80
20568;DHT22;10442;49.932;11.592;2023-08-06T06:23:31;18.80;76.80
20568;DHT22;10442;49.932;11.592;2023-08-06T06:25:59;18.80;76.60
20568;DHT22;10442;49.932;11.592;2023-08-06T06:28:52;18.80;76.70
20568;DHT22;10442;49.932;11.592;2023-08-06T06:31:20;18.90;77.00
20568;DHT22;10442;49.932;11.592;2023-08-06T06:33:47;18.90;77.20
20568;DHT22;10442;49.932;11.592;2023-08-06T06:36:15;18.90;77.00
20568;DHT22;10442;49.932;11.592;2023-08-06T06:38:42;18.90;76.70
20568;DHT22;10442;49.932;11.592;2023-08-06T06:41:10;19.00;77.10
20568;DHT22;10442;49.932;11.592;2023-08-06T06:43:38;19.00;77.40
20568;DHT22;10442;49.932;11.592;2023-08-06T06:46:11;19.20;77.50
20568;DHT22;10442;49.932;11.592;2023-08-06T06:48:39;19.30;77.50
20568;DHT22;10442;49.932;11.592;2023-08-06T06:51:07;19.40;77.50
20568;DHT22;10442;49.932;11.592;2023-08-06T06:53:35;19.60;77.90
20568;DHT22;10442;49.932;11.592;2023-08-06T06:56:04;19.70;77.60
20568;DHT22;10442;49.932;11.592;2023-08-06T06:58:32;19.90;77.20
20568;DHT22;10442;49.932;11.592;2023-08-06T07:01:00;20.10;77.50
20568;DHT22;10442;49.932;11.592;2023-08-06T07:03:27;20.30;77.00
20568;DHT22;10442;49.932;11.592;2023-08-06T07:05:57;20.50;75.80
20568;DHT22;10442;49.932;11.592;2023-08-06T07:08:28;20.70;74.30
20568;DHT22;10442;49.932;11.592;2023-08-06T07:11:03;20.80;73.90
20568;DHT22;10442;49.932;11.592;2023-08-06T07:13:31;20.90;73.30
20568;DHT22;10442;49.932;11.592;2023-08-06T07:15:59;20.90;73.20
20568;DHT22;10442;49.932;11.592;2023-08-06T07:18:27;20.90;73.10
20568;DHT22;10442;49.932;11.592;2023-08-06T07:24:40;20.90;73.20
20568;DHT22;10442;49.932;11.592;2023-08-06T07:27:08;20.90;73.90
20568;DHT22;10442;49.932;11.592;2023-08-06T07:29:36;20.90;73.60
20568;DHT22;10442;49.932;11.592;2023-08-06T07:32:04;20.90;73.20
20568;DHT22;10442;49.932;11.592;2023-08-06T07:34:31;21.00;74.00
20568;DHT22;10442;49.932;11.592;2023-08-06T07:36:59;21.10;75.40
20568;DHT22;10442;49.932;11.592;2023-08-06T07:39:26;21.50;75.70
20568;DHT22;10442;49.932;11.592;2023-08-06T07:41:55;22.00;75.10
20568;DHT22;10442;49.932;11.592;2023-08-06T07:44:23;22.70;75.30
20568;DHT22;10442;49.932;11.592;2023-08-06T07:46:51;23.40;72.90
20568;DHT22;10442;49.932;11.592;2023-08-06T07:49:18;24.00;69.90
20568;DHT22;10442;49.932;11.592;2023-08-06T07:51:46;24.40;67.50
20568;DHT22;10442;49.932;11.592;2023-08-06T07:54:13;24.70;66.30
20568;DHT22;10442;49.932;11.592;2023-08-06T07:56:41;24.80;64.60
20568;DHT22;10442;49.932;11.592;2023-08-06T07:59:08;24.90;62.90
20568;DHT22;10442;49.932;11.592;2023-08-06T08:01:36;24.80;63.30
20568;DHT22;10442;49.932;11.592;2023-08-06T08:04:04;24.70;63.40
20568;DHT22;10442;49.932;11.592;2023-08-06T08:06:33;24.70;63.80
20568;DHT22;10442;49.932;11.592;2023-08-06T08:09:01;24.60;63.60
20568;DHT22;10442;49.932;11.592;2023-08-06T08:11:28;24.60;62.90
20568;DHT22;10442;49.932;11.592;2023-08-06T08:13:56;24.40;61.70
20568;DHT22;10442;49.932;11.592;2023-08-06T08:16:23;24.30;63.20
20568;DHT22;10442;49.932;11.592;2023-08-06T08:18:51;24.40;63.60
20568;DHT22;10442;49.932;11.592;2023-08-06T08:21:19;24.50;63.90
20568;DHT22;10442;49.932;11.592;2023-08-06T08:23:46;24.70;63.90
20568;DHT22;10442;49.932;11.592;2023-08-06T08:26:15;25.00;63.60
20568;DHT22;10442;49.932;11.592;2023-08-06T08:28:42;25.30;61.30
20568;DHT22;10442;49.932;11.592;2023-08-06T08:31:11;25.50;59.80
20568;DHT22;10442;49.932;11.592;2023-08-06T08:33:39;25.60;59.70
20568;DHT22;10442;49.932;11.592;2023-08-06T08:36:06;25.60;58.60
20568;DHT22;10442;49.932;11.592;2023-08-06T08:38:34;25.50;58.30
20568;DHT22;10442;49.932;11.592;2023-08-06T08:41:01;25.30;58.20
20568;DHT22;10442;49.932;11.592;2023-08-06T08:43:29;25.10;58.60
20568;DHT22;10442;49.932;11.592;2023-08-06T08:45:58;24.90;58.80
20568;DHT22;10442;49.932;11.592;2023-08-06T08:48:27;24.70;59.10
20568;DHT22;10442;49.932;11.592;2023-08-06T08:50:55;24.60;60.00
20568;DHT22;10442;49.932;11.592;2023-08-06T08:53:23;24.50;59.70
20568;DHT22;10442;49.932;11.592;2023-08-06T08:55:53;24.50;61.10
20568;DHT22;10442;49.932;11.592;2023-08-06T08:58:20;24.60;60.60
20568;DHT22;10442;49.932;11.592;2023-08-06T09:00:48;25.00;61.80
20568;DHT22;10442;49.932;11.592;2023-08-06T09:03:17;25.60;59.10
20568;DHT22;10442;49.932;11.592;2023-08-06T09:05:47;26.10;59.40
20568;DHT22;10442;49.932;11.592;2023-08-06T09:08:18;26.80;58.70
20568;DHT22;10442;49.932;11.592;2023-08-06T09:10:48;27.30;57.80
20568;DHT22;10442;49.932;11.592;2023-08-06T09:13:17;28.00;56.10
20568;DHT22;10442;49.932;11.592;2023-08-06T09:15:44;28.40;54.30
20568;DHT22;10442;49.932;11.592;2023-08-06T09:18:12;28.70;52.50
20568;DHT22;10442;49.932;11.592;2023-08-06T09:20:40;28.80;52.00
20568;DHT22;10442;49.932;11.592;2023-08-06T09:23:10;28.70;50.30
20568;DHT22;10442;49.932;11.592;2023-08-06T09:25:39;28.40;49.30
20568;DHT22;10442;49.932;11.592;2023-08-06T09:28:08;28.10;49.80
20568;DHT22;10442;49.932;11.592;2023-08-06T09:30:37;27.70;50.40
20568;DHT22;10442;49.932;11.592;2023-08-06T09:33:10;27.50;52.10
20568;DHT22;10442;49.932;11.592;2023-08-06T09:35:42;27.50;51.50
20568;DHT22;10442;49.932;11.592;2023-08-06T09:38:10;27.50;51.70
20568;DHT22;10442;49.932;11.592;2023-08-06T09:40:39;27.50;51.70
20568;DHT22;10442;49.932;11.592;2023-08-06T09:43:07;27.60;51.40
20568;DHT22;10442;49.932;11.592;2023-08-06T09:45:37;27.50;51.30
20568;DHT22;10442;49.932;11.592;2023-08-06T09:48:06;27.20;50.10
20568;DHT22;10442;49.932;11.592;2023-08-06T09:50:35;26.80;51.10
20568;DHT22;10442;49.932;11.592;2023-08-06T09:53:05;26.30;52.50
20568;DHT22;10442;49.932;11.592;2023-08-06T09:55:33;25.80;53.30
20568;DHT22;10442;49.932;11.592;2023-08-06T09:58:01;25.30;54.30
20568;DHT22;10442;49.932;11.592;2023-08-06T10:00:29;24.70;55.40
20568;DHT22;10442;49.932;11.592;2023-08-06T10:03:02;24.10;56.00
20568;DHT22;10442;49.932;11.592;2023-08-06T10:05:31;23.50;57.40
20568;DHT22;10442;49.932;11.592;2023-08-06T10:07:59;23.00;58.30
20568;DHT22;10442;49.932;11.592;2023-08-06T10:10:29;22.60;59.20
20568;DHT22;10442;49.932;11.592;2023-08-06T10:12:58;22.40;60.10
20568;DHT22;10442;49.932;11.592;2023-08-06T10:15:31;22.10;60.90
20568;DHT22;10442;49.932;11.592;2023-08-06T10:18:00;21.90;62.20
20568;DHT22;10442;49.932;11.592;2023-08-06T10:20:55;21.80;62.50
20568;DHT22;10442;49.932;11.592;2023-08-06T10:23:33;21.70;63.40
20568;DHT22;10442;49.932;11.592;2023-08-06T10:26:02;21.60;64.10
20568;DHT22;10442;49.932;11.592;2023-08-06T10:28:37;21.50;64.10
20568;DHT22;10442;49.932;11.592;2023-08-06T10:31:06;21.50;64.80
20568;DHT22;10442;49.932;11.592;2023-08-06T10:33:44;21.60;65.10
20568;DHT22;10442;49.932;11.592;2023-08-06T10:36:13;21.70;65.50
20568;DHT22;10442;49.932;11.592;2023-08-06T10:38:49;21.80;65.20
20568;DHT22;10442;49.932;11.592;2023-08-06T10:41:28;22.00;65.10
20568;DHT22;10442;49.932;11.592;2023-08-06T10:44:09;22.10;66.10
20568;DHT22;10442;49.932;11.592;2023-08-06T10:46:37;22.30;66.10
20568;DHT22;10442;49.932;11.592;2023-08-06T10:49:05;22.50;67.10
20568;DHT22;10442;49.932;11.592;2023-08-06T10:51:35;22.60;65.50
20568;DHT22;10442;49.932;11.592;2023-08-06T10:54:04;22.70;64.50
20568;DHT22;10442;49.932;11.592;2023-08-06T10:56:39;22.80;63.50
20568;DHT22;10442;49.932;11.592;2023-08-06T10:59:07;22.80;62.60
20568;DHT22;10442;49.932;11.592;2023-08-06T11:01:38;22.80;62.60
20568;DHT22;10442;49.932;11.592;2023-08-06T11:04:06;22.70;63.00
20568;DHT22;10442;49.932;11.592;2023-08-06T11:06:34;22.70;63.10
20568;DHT22;10442;49.932;11.592;2023-08-06T11:09:01;22.70;62.90
20568;DHT22;10442;49.932;11.592;2023-08-06T11:11:29;22.70;62.50
20568;DHT22;10442;49.932;11.592;2023-08-06T11:13:56;22.80;62.90
20568;DHT22;10442;49.932;11.592;2023-08-06T11:16:24;22.80;63.00
20568;DHT22;10442;49.932;11.592;2023-08-06T11:18:52;22.90;62.50
20568;DHT22;10442;49.932;11.592;2023-08-06T11:21:22;23.00;62.10
20568;DHT22;10442;49.932;11.592;2023-08-06T11:23:51;23.10;63.00
20568;DHT22;10442;49.932;11.592;2023-08-06T11:26:20;23.20;62.60
20568;DHT22;10442;49.932;11.592;2023-08-06T11:28:47;23.20;62.00
20568;DHT22;10442;49.932;11.592;2023-08-06T11:31:19;23.40;62.10
20568;DHT22;10442;49.932;11.592;2023-08-06T11:33:46;23.40;61.00
20568;DHT22;10442;49.932;11.592;2023-08-06T11:36:14;23.50;60.50
20568;DHT22;10442;49.932;11.592;2023-08-06T11:38:41;23.50;59.60
20568;DHT22;10442;49.932;11.592;2023-08-06T11:41:09;23.40;59.70
20568;DHT22;10442;49.932;11.592;2023-08-06T11:43:36;23.30;60.00
20568;DHT22;10442;49.932;11.592;2023-08-06T11:46:04;23.10;60.90
20568;DHT22;10442;49.932;11.592;2023-08-06T11:48:31;22.90;62.70
20568;DHT22;10442;49.932;11.592;2023-08-06T11:50:59;22.80;63.80
20568;DHT22;10442;49.932;11.592;2023-08-06T11:53:27;22.80;64.30
20568;DHT22;10442;49.932;11.592;2023-08-06T11:55:56;22.70;63.90
20568;DHT22;10442;49.932;11.592;2023-08-06T11:58:23;22.70;64.30
20568;DHT22;10442;49.932;11.592;2023-08-06T12:00:51;22.80;64.00
20568;DHT22;10442;49.932;11.592;2023-08-06T12:03:19;22.80;63.20
20568;DHT22;10442;49.932;11.592;2023-08-06T12:05:47;22.90;62.70
20568;DHT22;10442;49.932;11.592;2023-08-06T12:08:15;22.90;63.40
20568;DHT22;10442;49.932;11.592;2023-08-06T12:10:42;23.10;63.30
20568;DHT22;10442;49.932;11.592;2023-08-06T12:13:10;23.20;62.30
20568;DHT22;10442;49.932;11.592;2023-08-06T12:15:38;23.30;61.70
20568;DHT22;10442;49.932;11.592;2023-08-06T12:18:06;23.40;61.70
20568;DHT22;10442;49.932;11.592;2023-08-06T12:20:33;23.50;62.50
20568;DHT22;10442;49.932;11.592;2023-08-06T12:23:01;23.60;61.80
20568;DHT22;10442;49.932;11.592;2023-08-06T12:25:30;23.70;61.60
20568;DHT22;10442;49.932;11.592;2023-08-06T12:27:57;23.80;62.00
20568;DHT22;10442;49.932;11.592;2023-08-06T12:30:25;23.90;60.80
20568;DHT22;10442;49.932;11.592;2023-08-06T12:32:52;24.10;59.80
20568;DHT22;10442;49.932;11.592;2023-08-06T12:35:20;24.10;59.20
20568;DHT22;10442;49.932;11.592;2023-08-06T12:37:48;24.10;58.80
20568;DHT22;10442;49.932;11.592;2023-08-06T12:40:15;24.00;61.30
20568;DHT22;10442;49.932;11.592;2023-08-06T12:43:02;23.90;61.70
20568;DHT22;10442;49.932;11.592;2023-08-06T12:45:30;23.70;62.60
20568;DHT22;10442;49.932;11.592;2023-08-06T12:47:57;23.60;63.40
20568;DHT22;10442;49.932;11.592;2023-08-06T12:50:25;23.50;63.10
20568;DHT22;10442;49.932;11.592;2023-08-06T12:52:53;23.40;63.70
20568;DHT22;10442;49.932;11.592;2023-08-06T12:55:20;23.30;65.10
20568;DHT22;10442;49.932;11.592;2023-08-06T12:57:48;23.20;65.10
20568;DHT22;10442;49.932;11.592;2023-08-06T13:00:27;23.30;65.20
20568;DHT22;10442;49.932;11.592;2023-08-06T13:02:55;23.30;65.00
20568;DHT22;10442;49.932;11.592;2023-08-06T13:05:23;23.30;65.30
20568;DHT22;10442;49.932;11.592;2023-08-06T13:07:50;23.40;65.30
20568;DHT22;10442;49.932;11.592;2023-08-06T13:10:18;23.50;65.00
20568;DHT22;10442;49.932;11.592;2023-08-06T13:12:45;23.60;64.10
20568;DHT22;10442;49.932;11.592;2023-08-06T13:15:13;23.60;64.10
20568;DHT22;10442;49.932;11.592;2023-08-06T13:17:42;23.70;64.00
20568;DHT22;10442;49.932;11.592;2023-08-06T13:20:10;23.80;64.00
20568;DHT22;10442;49.932;11.592;2023-08-06T13:22:37;23.80;63.30
20568;DHT22;10442;49.932;11.592;2023-08-06T13:25:05;23.80;61.70
20568;DHT22;10442;49.932;11.592;2023-08-06T13:27:33;23.80;61.70
20568;DHT22;10442;49.932;11.592;2023-08-06T13:30:00;23.70;61.30
20568;DHT22;10442;49.932;11.592;2023-08-06T13:32:30;23.60;60.60
20568;DHT22;10442;49.932;11.592;2023-08-06T13:34:59;23.50;60.50
20568;DHT22;10442;49.932;11.592;2023-08-06T13:37:27;23.40;61.80
20568;DHT22;10442;49.932;11.592;2023-08-06T13:39:54;23.20;61.70
20568;DHT22;10442;49.932;11.592;2023-08-06T13:42:22;23.10;61.40
20568;DHT22;10442;49.932;11.592;2023-08-06T13:44:50;22.90;61.60
20568;DHT22;10442;49.932;11.592;2023-08-06T13:47:18;22.80;62.40
20568;DHT22;10442;49.932;11.592;2023-08-06T13:49:45;22.60;63.20
20568;DHT22;10442;49.932;11.592;2023-08-06T13:52:13;22.50;63.30
20568;DHT22;10442;49.932;11.592;2023-08-06T13:54:49;22.40;63.80
20568;DHT22;10442;49.932;11.592;2023-08-06T13:57:16;22.20;64.30
20568;DHT22;10442;49.932;11.592;2023-08-06T13:59:47;22.10;65.30
20568;DHT22;10442;49.932;11.592;2023-08-06T14:02:14;22.00;66.10
20568;DHT22;10442;49.932;11.592;2023-08-06T14:04:42;22.00;66.80
20568;DHT22;10442;49.932;11.592;2023-08-06T14:07:10;22.00;67.80
20568;DHT22;10442;49.932;11.592;2023-08-06T14:09:37;22.00;66.10
20568;DHT22;10442;49.932;11.592;2023-08-06T14:12:05;21.90;65.80
20568;DHT22;10442;49.932;11.592;2023-08-06T14:14:33;21.90;65.80
20568;DHT22;10442;49.932;11.592;2023-08-06T14:17:01;21.90;66.60
20568;DHT22;10442;49.932;11.592;2023-08-06T14:19:32;21.90;67.10
20568;DHT22;10442;49.932;11.592;2023-08-06T14:22:00;21.90;67.40
20568;DHT22;10442;49.932;11.592;2023-08-06T14:24:27;22.00;67.50
20568;DHT22;10442;49.932;11.592;2023-08-06T14:26:55;22.00;67.50
20568;DHT22;10442;49.932;11.592;2023-08-06T14:29:23;22.00;67.10
20568;DHT22;10442;49.932;11.592;2023-08-06T14:31:51;22.00;66.80
20568;DHT22;10442;49.932;11.592;2023-08-06T14:34:19;22.00;66.60
20568;DHT22;10442;49.932;11.592;2023-08-06T14:36:46;22.00;66.80
20568;DHT22;10442;49.932;11.592;2023-08-06T14:39:14;22.10;67.40
20568;DHT22;10442;49.932;11.592;2023-08-06T14:41:41;22.10;68.00
20568;DHT22;10442;49.932;11.592;2023-08-06T14:44:09;22.20;67.80
20568;DHT22;10442;49.932;11.592;2023-08-06T14:46:37;22.30;67.00
20568;DHT22;10442;49.932;11.592;2023-08-06T14:49:04;22.20;66.20
20568;DHT22;10442;49.932;11.592;2023-08-06T14:51:32;22.20;66.30
20568;DHT22;10442;49.932;11.592;2023-08-06T14:54:01;22.10;66.80
20568;DHT22;10442;49.932;11.592;2023-08-06T14:56:29;22.00;67.30
20568;DHT22;10442;49.932;11.592;2023-08-06T14:58:57;22.00;66.90
20568;DHT22;10442;49.932;11.592;2023-08-06T15:01:24;21.80;66.40
20568;DHT22;10442;49.932;11.592;2023-08-06T15:03:51;21.70;66.60
20568;DHT22;10442;49.932;11.592;2023-08-06T15:06:19;21.60;66.30
20568;DHT22;10442;49.932;11.592;2023-08-06T15:08:46;21.40;66.30
20568;DHT22;10442;49.932;11.592;2023-08-06T15:11:15;21.30;66.50
20568;DHT22;10442;49.932;11.592;2023-08-06T15:13:42;21.20;67.00
20568;DHT22;10442;49.932;11.592;2023-08-06T15:16:10;21.00;67.30
20568;DHT22;10442;49.932;11.592;2023-08-06T15:18:38;20.90;67.50
20568;DHT22;10442;49.932;11.592;2023-08-06T15:21:05;20.90;67.70
20568;DHT22;10442;49.932;11.592;2023-08-06T15:23:33;20.80;68.20
20568;DHT22;10442;49.932;11.592;2023-08-06T15:26:00;20.70;68.70
20568;DHT22;10442;49.932;11.592;2023-08-06T15:28:28;20.70;69.10
20568;DHT22;10442;49.932;11.592;2023-08-06T15:30:55;20.60;69.10
20568;DHT22;10442;49.932;11.592;2023-08-06T15:33:23;20.60;69.40
20568;DHT22;10442;49.932;11.592;2023-08-06T15:35:50;20.60;69.50
20568;DHT22;10442;49.932;11.592;2023-08-06T15:38:17;20.60;69.80
20568;DHT22;10442;49.932;11.592;2023-08-06T15:40:45;20.50;70.60
20568;DHT22;10442;49.932;11.592;2023-08-06T15:43:14;20.40;70.40
20568;DHT22;10442;49.932;11.592;2023-08-06T15:45:41;20.30;70.70
20568;DHT22;10442;49.932;11.592;2023-08-06T15:48:09;20.20;71.20
20568;DHT22;10442;49.932;11.592;2023-08-06T15:50:37;20.00;71.30
20568;DHT22;10442;49.932;11.592;2023-08-06T15:53:06;19.90;71.70
20568;DHT22;10442;49.932;11.592;2023-08-06T15:55:34;19.80;71.80
20568;DHT22;10442;49.932;11.592;2023-08-06T15:58:05;19.60;72.00
20568;DHT22;10442;49.932;11.592;2023-08-06T16:00:33;19.50;72.40
20568;DHT22;10442;49.932;11.592;2023-08-06T16:03:02;19.40;72.50
20568;DHT22;10442;49.932;11.592;2023-08-06T16:05:29;19.30;73.00
20568;DHT22;10442;49.932;11.592;2023-08-06T16:07:58;19.20;73.20
20568;DHT22;10442;49.932;11.592;2023-08-06T16:10:26;19.10;73.30
20568;DHT22;10442;49.932;11.592;2023-08-06T16:12:54;19.00;73.80